Time;durP1;ratioP1;P1;durP2;ratioP2;P2;SDS_P1;SDS_P2;PMS_P1;PMS_P2;Temp;Humidity;BMP_temperature;BMP_pressure;BME280_temperature;BME280_humidity;BME280_pressure;Samples;Min_cycle;Max_cycle;Signal;HPM_P1;HPM_P2
2021/01/18 00:00:50;;;;;;;3.30;1.40;;;;;;;27.11;28.35;97202.00;5014219;28;20038;-32
2021/01/18 00:03:15;;;;;;;7.32;1.52;;;;;;;27.10;28.24;97189.78;5013266;28;20061;-35
2021/01/18 00:05:41;;;;;;;2.08;1.50;;;;;;;27.10;28.39;97192.41;5011092;28;20446;-31
2021/01/18 00:08:07;;;;;;;2.10;1.45;;;;;;;27.11;28.38;97195.88;5015638;28;20084;-32
2021/01/18 00:10:33;;;;;;;2.47;1.55;;;;;;;27.12;28.16;97202.84;5012760;28;20092;-32
2021/01/18 00:12:58;;;;;;;2.05;1.38;;;;;;;27.09;28.33;97195.97;5011142;28;20111;-32
2021/01/18 00:15:24;;;;;;;2.05;1.33;;;;;;;27.11;28.11;97193.25;5010615;28;20494;-29
2021/01/18 00:17:50;;;;;;;1.90;1.35;;;;;;;27.11;28.32;97195.88;5012453;28;20578;-32
2021/01/18 00:20:16;;;;;;;4.47;1.50;;;;;;;27.08;28.34;97193.41;5005063;28;20136;-33
2021/01/18 00:22:42;;;;;;;3.10;1.40;;;;;;;27.11;28.29;97206.38;5007549;28;20050;-36
2021/01/18 00:25:10;;;;;;;1.80;1.30;;;;;;;27.10;28.25;97200.28;5006224;28;20061;-33
2021/01/18 00:27:35;;;;;;;1.90;1.33;;;;;;;27.09;28.37;97188.09;5006701;28;20048;-33
2021/01/18 00:30:02;;;;;;;2.25;1.52;;;;;;;27.10;28.68;97188.91;5016965;28;20044;-33
2021/01/18 00:32:28;;;;;;;1.67;1.30;;;;;;;27.09;28.28;97187.22;5013301;28;20474;-33
2021/01/18 00:34:53;;;;;;;1.48;1.23;;;;;;;27.08;28.28;97189.00;5016909;28;20044;-34
2021/01/18 00:37:19;;;;;;;4.28;1.27;;;;;;;27.08;28.28;97196.88;5018234;28;20438;-32
2021/01/18 00:39:45;;;;;;;1.85;1.33;;;;;;;27.08;28.29;97194.25;5002994;28;20574;-32
2021/01/18 00:42:17;;;;;;;1.88;1.30;;;;;;;27.09;28.28;97192.47;5001967;28;20052;-33
2021/01/18 00:44:42;;;;;;;2.00;1.58;;;;;;;27.09;28.07;97181.97;5011791;28;20049;-32
2021/01/18 00:47:08;;;;;;;2.15;1.33;;;;;;;27.07;28.29;97184.66;5005327;28;21004;-32
2021/01/18 00:49:33;;;;;;;2.30;1.50;;;;;;;27.07;28.03;97189.94;5008565;28;20057;-32
2021/01/18 00:51:58;;;;;;;1.65;1.13;;;;;;;27.06;28.23;97185.59;5009167;28;20445;-31
2021/01/18 00:54:24;;;;;;;1.40;1.30;;;;;;;27.06;28.22;97188.22;5009251;28;20045;-31
2021/01/18 00:56:50;;;;;;;1.75;1.13;;;;;;;27.03;28.22;97180.50;5019264;28;20042;-32
2021/01/18 00:59:16;;;;;;;3.17;1.45;;;;;;;27.07;28.13;97176.78;5009437;28;20050;-31
2021/01/18 01:01:42;;;;;;;2.53;1.17;;;;;;;27.07;28.24;97183.81;5007713;28;20050;-32
2021/01/18 01:04:07;;;;;;;2.83;1.20;;;;;;;27.07;28.17;97189.06;5009442;28;20053;-32
2021/01/18 01:06:33;;;;;;;2.33;1.10;;;;;;;27.07;28.29;97182.03;5014613;28;20115;-33
2021/01/18 01:08:59;;;;;;;2.30;0.95;;;;;;;27.06;28.09;97182.97;5021926;28;20048;-33
2021/01/18 01:11:24;;;;;;;1.42;1.00;;;;;;;27.06;28.31;97188.22;5018075;28;20169;-30
2021/01/18 01:13:50;;;;;;;3.85;1.27;;;;;;;27.07;28.07;97192.56;5015112;28;20034;-32
2021/01/18 01:16:16;;;;;;;1.27;1.17;;;;;;;27.05;28.17;97186.53;5007193;28;20053;-33
2021/01/18 01:18:43;;;;;;;1.70;1.20;;;;;;;27.06;28.08;97185.59;5014104;28;20098;-33
2021/01/18 01:21:09;;;;;;;1.92;1.20;;;;;;;27.05;28.04;97185.69;5021542;28;20049;-30
2021/01/18 01:23:34;;;;;;;1.65;1.10;;;;;;;27.05;28.19;97190.94;4998023;28;20048;-33
2021/01/18 01:26:00;;;;;;;4.32;1.00;;;;;;;27.03;28.19;97192.81;5015383;28;20064;-33
2021/01/18 01:28:26;;;;;;;1.20;1.10;;;;;;;27.04;28.00;97191.88;5006891;28;20096;-33
2021/01/18 01:30:52;;;;;;;1.30;1.15;;;;;;;27.04;28.08;97190.06;5010090;28;20046;-34
2021/01/18 01:33:17;;;;;;;1.63;0.98;;;;;;;27.04;27.92;97183.97;5010071;28;20100;-34
2021/01/18 01:35:42;;;;;;;2.08;1.05;;;;;;;27.02;28.06;97191.94;5021136;28;20041;-31
2021/01/18 01:38:08;;;;;;;2.25;1.25;;;;;;;27.00;28.15;97192.03;5005075;28;20042;-32
2021/01/18 01:40:34;;;;;;;2.25;1.05;;;;;;;27.01;28.03;97190.25;5003249;28;20049;-34
2021/01/18 01:43:01;;;;;;;1.10;1.00;;;;;;;27.01;28.19;97195.53;5008756;28;20537;-34
2021/01/18 01:45:27;;;;;;;1.88;1.13;;;;;;;27.01;28.16;97198.16;5012692;28;20038;-32
2021/01/18 01:47:55;;;;;;;1.90;1.00;;;;;;;27.00;28.12;97202.53;5015500;28;20037;-32
2021/01/18 01:50:23;;;;;;;1.63;1.10;;;;;;;27.00;28.15;97193.78;5011431;28;20478;-32
2021/01/18 01:52:52;;;;;;;1.55;0.88;;;;;;;27.00;27.96;97207.81;5015334;28;20041;-31
2021/01/18 01:55:24;;;;;;;1.50;0.88;;;;;;;27.00;27.95;97204.31;5011686;28;20462;-33
2021/01/18 01:57:50;;;;;;;1.88;1.17;;;;;;;26.98;28.06;97199.16;5012020;28;20123;-32
2021/01/18 02:00:18;;;;;;;1.73;1.05;;;;;;;26.98;27.92;97201.78;5006840;28;20077;-33
2021/01/18 02:02:43;;;;;;;0.77;0.77;;;;;;;26.97;28.22;97199.22;5008357;28;20057;-32
2021/01/18 02:05:13;;;;;;;1.83;1.05;;;;;;;26.96;28.09;97202.81;5002614;28;20719;-33
2021/01/18 02:07:40;;;;;;;1.00;0.73;;;;;;;26.96;28.02;97203.63;5016515;28;20045;-32
2021/01/18 02:10:07;;;;;;;0.82;0.80;;;;;;;26.97;27.85;97210.59;5007559;28;20042;-33
2021/01/18 02:12:33;;;;;;;0.95;0.70;;;;;;;26.96;28.09;97202.81;5002540;28;20461;-35
2021/01/18 02:15:14;;;;;;;1.13;0.90;;;;;;;26.96;28.03;97210.69;5009905;28;20037;-33
2021/01/18 02:18:04;;;;;;;1.17;0.93;;;;;;;26.96;27.95;97203.63;5007224;28;20025;-34
2021/01/18 02:21:05;;;;;;;1.35;0.75;;;;;;;26.96;27.92;97200.16;5000940;28;20044;-33
2021/01/18 02:23:46;;;;;;;1.50;0.82;;;;;;;26.94;28.11;97200.25;4998364;28;20721;-33
2021/01/18 02:26:14;;;;;;;0.80;0.80;;;;;;;26.95;28.07;97206.34;5002996;28;20037;-34
2021/01/18 02:29:05;;;;;;;1.00;0.90;;;;;;;26.94;28.17;97216.03;4983805;28;20037;-31
2021/01/18 02:31:38;;;;;;;1.33;1.00;;;;;;;26.95;27.88;97217.72;5001937;28;20037;-33
2021/01/18 02:34:10;;;;;;;1.13;0.85;;;;;;;26.94;27.80;97216.03;4994617;28;20024;-30
2021/01/18 02:36:53;;;;;;;2.38;0.98;;;;;;;26.95;27.89;97222.13;5002600;28;20625;-33
2021/01/18 02:39:43;;;;;;;0.82;0.70;;;;;;;26.94;27.96;97220.38;4996098;28;20096;-32
2021/01/18 02:42:13;;;;;;;1.20;0.90;;;;;;;26.92;28.00;97217.84;5009796;28;20036;-33
2021/01/18 02:44:39;;;;;;;1.27;0.80;;;;;;;26.92;27.83;97225.72;4990521;28;20124;-33
2021/01/18 02:47:05;;;;;;;0.80;0.70;;;;;;;26.92;27.74;97230.16;4998268;28;20361;-32
2021/01/18 02:49:30;;;;;;;2.13;0.70;;;;;;;26.92;27.79;97227.53;5008055;28;20117;-33
2021/01/18 02:52:04;;;;;;;1.33;0.90;;;;;;;26.92;27.68;97225.72;5005915;28;20053;-33
2021/01/18 02:54:30;;;;;;;1.25;0.90;;;;;;;26.92;27.78;97224.91;4991198;28;20042;-33
2021/01/18 02:56:55;;;;;;;1.33;0.90;;;;;;;26.92;27.75;97222.25;5005951;28;20076;-33
2021/01/18 02:59:21;;;;;;;1.58;0.95;;;;;;;26.89;27.61;97223.28;4990660;28;20073;-32
2021/01/18 03:02:02;;;;;;;1.10;1.00;;;;;;;26.90;27.63;97230.22;4996319;28;20049;-34
2021/01/18 03:04:42;;;;;;;1.40;0.80;;;;;;;26.91;27.78;97231.91;4996137;28;20116;-33
2021/01/18 03:07:56;;;;;;;1.08;0.77;;;;;;;26.91;27.62;97225.78;5007295;28;20033;-33
2021/01/18 03:10:38;;;;;;;0.60;0.60;;;;;;;26.88;27.73;97230.31;5004516;28;20045;-36
2021/01/18 03:13:18;;;;;;;1.35;1.00;;;;;;;26.87;27.65;97225.97;5000610;28;20033;-30
2021/01/18 03:15:46;;;;;;;0.90;0.80;;;;;;;26.88;27.61;97222.41;5001927;28;20049;-32
2021/01/18 03:18:15;;;;;;;0.85;0.70;;;;;;;26.86;27.72;97221.63;5004436;28;20041;-33
2021/01/18 03:20:40;;;;;;;1.80;0.65;;;;;;;26.90;27.64;97234.63;5014581;28;20029;-34
2021/01/18 03:23:07;;;;;;;1.50;0.85;;;;;;;26.90;27.58;97234.63;4979331;28;20040;-32
2021/01/18 03:25:45;;;;;;;3.42;1.05;;;;;;;26.87;27.57;97239.13;5006850;28;20431;-33
2021/01/18 03:28:10;;;;;;;0.90;0.60;;;;;;;26.88;27.76;97232.94;5004430;28;20030;-33
2021/01/18 03:30:36;;;;;;;3.67;0.80;;;;;;;26.88;27.75;97232.06;5008406;28;20040;-35
2021/01/18 03:33:02;;;;;;;2.40;0.80;;;;;;;26.88;27.65;97232.94;5006849;28;20560;-33
2021/01/18 03:35:28;;;;;;;1.70;0.82;;;;;;;26.88;27.76;97232.94;4996226;28;20128;-32
2021/01/18 03:37:55;;;;;;;1.23;0.82;;;;;;;26.87;27.75;97231.22;4996151;28;20069;-33
2021/01/18 03:40:21;;;;;;;1.00;0.77;;;;;;;26.88;27.74;97227.66;5000595;28;20744;-32
2021/01/18 03:43:03;;;;;;;0.98;0.68;;;;;;;26.89;27.63;97233.78;4998723;28;20090;-31
2021/01/18 03:45:29;;;;;;;1.77;0.70;;;;;;;26.89;27.76;97225.91;5003961;28;20077;-35
2021/01/18 03:47:55;;;;;;;0.68;0.57;;;;;;;26.88;27.63;97237.31;5000077;28;20029;-32
2021/01/18 03:50:21;;;;;;;3.22;0.80;;;;;;;26.87;27.60;97233.00;5011373;28;20095;-33
2021/01/18 03:52:47;;;;;;;1.77;0.73;;;;;;;26.88;27.60;97232.94;5004672;28;20034;-33
2021/01/18 03:55:13;;;;;;;0.90;0.70;;;;;;;26.86;27.76;97229.50;5006226;28;20048;-31
2021/01/18 03:57:39;;;;;;;1.23;0.70;;;;;;;26.88;27.65;97238.19;5002977;28;21873;-31
2021/01/18 04:00:07;;;;;;;3.75;0.80;;;;;;;26.83;27.61;97218.31;5003350;28;20046;-34
2021/01/18 04:02:32;;;;;;;2.25;0.82;;;;;;;26.88;27.51;97227.66;5001365;28;20038;-33
2021/01/18 04:04:59;;;;;;;1.67;0.73;;;;;;;26.90;27.61;97229.38;4998587;28;20718;-32
2021/01/18 04:07:25;;;;;;;1.05;0.60;;;;;;;26.88;27.72;97229.44;5007309;28;20104;-29
2021/01/18 04:09:50;;;;;;;1.00;0.60;;;;;;;26.87;27.63;97231.22;5016307;28;20646;-30
2021/01/18 04:12:16;;;;;;;1.33;0.60;;;;;;;26.88;27.65;97234.69;4999842;28;20065;-30
2021/01/18 04:14:42;;;;;;;0.77;0.60;;;;;;;26.87;27.71;97236.50;5008294;28;20061;-32
2021/01/18 04:17:07;;;;;;;1.42;0.68;;;;;;;26.87;27.79;97239.13;5000538;28;20119;-31
2021/01/18 04:19:33;;;;;;;1.58;0.73;;;;;;;26.87;27.80;97236.50;4994931;28;20499;-33
2021/01/18 04:21:59;;;;;;;1.00;0.77;;;;;;;26.87;27.81;97243.53;5002286;28;20029;-32
2021/01/18 04:24:24;;;;;;;0.88;0.63;;;;;;;26.85;27.70;97238.34;5010212;28;20047;-30
2021/01/18 04:26:50;;;;;;;1.15;0.50;;;;;;;26.86;27.63;97239.19;5000254;28;20056;-32
2021/01/18 04:29:15;;;;;;;0.98;0.50;;;;;;;26.84;27.81;97236.63;4996627;28;20186;-32
2021/01/18 04:31:41;;;;;;;0.70;0.50;;;;;;;26.86;27.72;97234.75;5009867;28;20426;-32
2021/01/18 04:34:07;;;;;;;0.52;0.52;;;;;;;26.86;27.79;97234.75;5002947;28;20050;-31
2021/01/18 04:36:38;;;;;;;0.98;0.43;;;;;;;26.86;27.59;97239.19;5010122;28;20709;-30
2021/01/18 04:39:07;;;;;;;2.15;0.80;;;;;;;26.85;27.66;97240.97;5000919;28;20042;-33
2021/01/18 04:41:35;;;;;;;0.60;0.60;;;;;;;26.85;27.76;97238.34;5001380;28;20037;-33
2021/01/18 04:44:01;;;;;;;0.98;0.40;;;;;;;26.85;27.65;97234.88;5006334;28;21189;-33
2021/01/18 04:46:28;;;;;;;1.00;0.63;;;;;;;26.84;27.57;97241.91;5004777;28;20034;-33
2021/01/18 04:48:55;;;;;;;1.63;0.77;;;;;;;26.84;27.54;97235.78;4999870;28;20041;-30
2021/01/18 04:51:20;;;;;;;1.75;0.75;;;;;;;26.84;27.75;97239.28;4987761;28;20038;-34
2021/01/18 04:53:48;;;;;;;0.50;0.50;;;;;;;26.84;27.63;97235.78;5010702;28;20044;-32
2021/01/18 04:56:26;;;;;;;0.85;0.57;;;;;;;26.83;27.78;97245.47;5001279;28;20026;-31
2021/01/18 04:58:51;;;;;;;1.40;0.70;;;;;;;26.81;27.66;97236.78;5008903;28;20514;-31
2021/01/18 05:01:17;;;;;;;1.88;0.60;;;;;;;26.82;27.83;97242.91;4992398;28;20045;-32
2021/01/18 05:03:43;;;;;;;2.80;0.70;;;;;;;26.83;27.60;97253.34;4988144;28;20057;-33
2021/01/18 05:06:12;;;;;;;1.25;0.60;;;;;;;26.81;27.71;97249.94;4997771;28;20049;-31
2021/01/18 05:09:15;;;;;;;0.57;0.55;;;;;;;26.80;27.71;97240.34;5009106;28;20706;-32
2021/01/18 05:11:41;;;;;;;0.98;0.73;;;;;;;26.81;27.74;97239.41;5010007;28;20067;-33
2021/01/18 05:14:07;;;;;;;1.33;0.60;;;;;;;26.81;27.79;97249.94;5006456;28;20057;-30
2021/01/18 05:16:34;;;;;;;0.82;0.60;;;;;;;26.81;27.80;97257.81;5004393;28;20725;-33
2021/01/18 05:19:09;;;;;;;4.97;0.80;;;;;;;26.82;27.62;97254.28;4999687;28;20108;-33
2021/01/18 05:21:42;;;;;;;1.05;0.50;;;;;;;26.82;27.68;97249.03;5012502;28;20132;-33
2021/01/18 05:24:08;;;;;;;2.70;1.05;;;;;;;26.82;26.52;97251.66;5002667;28;20117;-33
2021/01/18 05:26:34;;;;;;;1.55;0.93;;;;;;;26.81;26.75;97252.56;5003295;28;20096;-30
2021/01/18 05:29:00;;;;;;;1.55;0.82;;;;;;;26.81;27.31;97257.81;4999876;28;20037;-31
2021/01/18 05:31:25;;;;;;;0.82;0.50;;;;;;;26.79;27.64;97264.94;5010869;28;20113;-32
2021/01/18 05:33:51;;;;;;;3.15;0.70;;;;;;;26.80;27.62;97269.28;5005088;28;20037;-33
2021/01/18 05:36:49;;;;;;;2.78;0.80;;;;;;;26.80;27.77;97260.53;5005943;28;20091;-32
2021/01/18 05:39:30;;;;;;;1.30;0.68;;;;;;;26.79;27.58;97264.94;4998285;28;20133;-35
2021/01/18 05:41:56;;;;;;;0.88;0.63;;;;;;;26.78;27.66;97268.50;5005523;28;20442;-32
2021/01/18 05:44:40;;;;;;;1.02;0.60;;;;;;;26.78;27.76;97273.78;5000735;28;20096;-32
2021/01/18 05:47:06;;;;;;;1.27;0.70;;;;;;;26.77;27.82;97277.31;5007150;28;20081;-32
2021/01/18 05:49:45;;;;;;;0.88;0.65;;;;;;;26.79;27.64;97280.72;4998347;28;20622;-32
2021/01/18 05:52:30;;;;;;;1.38;0.82;;;;;;;26.79;27.60;97283.34;5010797;28;20045;-33
2021/01/18 05:55:15;;;;;;;1.25;0.55;;;;;;;26.79;27.76;97290.38;5009996;28;20419;-34
2021/01/18 05:57:53;;;;;;;1.33;0.60;;;;;;;26.79;27.87;97296.50;5007567;28;20249;-33
2021/01/18 06:00:34;;;;;;;0.98;0.57;;;;;;;26.81;27.63;97293.78;5006470;28;20025;-33
2021/01/18 06:03:07;;;;;;;0.63;0.60;;;;;;;26.80;27.78;97287.69;5002008;28;20041;-33
2021/01/18 06:05:34;;;;;;;1.58;0.63;;;;;;;26.79;27.83;97285.97;5003660;28;20076;-31
2021/01/18 06:08:15;;;;;;;1.02;0.60;;;;;;;26.81;27.69;97289.38;5002746;28;20522;-33
2021/01/18 06:10:41;;;;;;;0.68;0.50;;;;;;;26.81;27.79;97289.38;5004759;28;20033;-34
2021/01/18 06:13:32;;;;;;;1.25;0.60;;;;;;;26.83;27.85;97292.78;5004094;28;20180;-32
2021/01/18 06:16:03;;;;;;;0.98;0.50;;;;;;;26.84;27.83;97291.00;4997501;28;20076;-34
2021/01/18 06:18:32;;;;;;;0.68;0.50;;;;;;;26.83;27.72;97300.69;5003127;28;20033;-35
2021/01/18 06:20:58;;;;;;;0.75;0.40;;;;;;;26.83;27.79;97303.31;4997627;28;20049;-34
2021/01/18 06:23:30;;;;;;;1.30;0.47;;;;;;;26.83;27.70;97308.56;5006012;28;20042;-34
2021/01/18 06:25:56;;;;;;;0.60;0.60;;;;;;;26.85;27.91;97313.75;5001287;28;20042;-32
2021/01/18 06:28:32;;;;;;;0.88;0.50;;;;;;;26.86;27.79;97313.66;5006480;28;20050;-33
2021/01/18 06:31:04;;;;;;;0.80;0.60;;;;;;;26.85;27.82;97317.22;5003545;28;20037;-33
2021/01/18 06:33:35;;;;;;;1.10;0.55;;;;;;;26.85;27.85;97311.97;5003331;28;20030;-32
2021/01/18 06:36:13;;;;;;;1.40;0.57;;;;;;;26.85;27.83;97325.09;5009205;28;20157;-32
2021/01/18 06:38:40;;;;;;;0.65;0.47;;;;;;;26.85;27.71;97319.03;5002075;28;20037;-34
2021/01/18 06:41:06;;;;;;;0.57;0.50;;;;;;;26.85;27.85;97321.66;5008603;28;20045;-33
2021/01/18 06:43:31;;;;;;;0.90;0.60;;;;;;;26.85;27.81;97322.47;5010309;28;20116;-32
2021/01/18 06:45:57;;;;;;;2.08;0.60;;;;;;;26.86;27.73;97321.53;4999624;28;20037;-33
2021/01/18 06:48:22;;;;;;;1.15;0.60;;;;;;;26.86;28.46;97323.34;5005537;28;20037;-34
2021/01/18 06:50:48;;;;;;;0.98;0.45;;;;;;;26.84;27.79;97320.78;4998790;28;20749;-31
2021/01/18 06:53:23;;;;;;;1.67;0.52;;;;;;;26.86;27.84;97318.91;5009943;28;20037;-32
2021/01/18 06:56:01;;;;;;;0.88;0.40;;;;;;;26.85;27.95;97319.84;4998114;28;20644;-33
2021/01/18 06:58:33;;;;;;;0.43;0.30;;;;;;;26.86;27.82;97321.53;4999917;28;20038;-34
2021/01/18 07:00:59;;;;;;;0.47;0.40;;;;;;;26.87;27.79;97319.78;4998228;28;20128;-33
2021/01/18 07:03:40;;;;;;;0.63;0.40;;;;;;;26.87;27.73;97323.28;5003840;28;20041;-30
2021/01/18 07:06:37;;;;;;;0.75;0.55;;;;;;;26.87;27.84;97333.78;5007319;28;20750;-32
2021/01/18 07:09:13;;;;;;;0.95;0.50;;;;;;;26.87;27.82;97332.94;4998633;28;20026;-33
2021/01/18 07:11:38;;;;;;;0.75;0.60;;;;;;;26.87;27.83;97341.69;5018752;28;20047;-32
2021/01/18 07:14:08;;;;;;;1.63;0.55;;;;;;;26.87;27.82;97341.69;4995857;28;20407;-33
2021/01/18 07:16:34;;;;;;;0.52;0.30;;;;;;;26.86;27.80;97334.69;4998890;28;20050;-31
2021/01/18 07:19:00;;;;;;;0.57;0.30;;;;;;;26.88;27.85;97343.38;4996283;28;20096;-32
2021/01/18 07:21:42;;;;;;;2.10;0.47;;;;;;;26.90;27.84;97334.56;4998940;28;20239;-32
2021/01/18 07:24:11;;;;;;;0.57;0.45;;;;;;;26.89;27.90;97344.25;4992011;28;20030;-30
2021/01/18 07:26:50;;;;;;;0.82;0.50;;;;;;;26.89;27.73;97344.25;5002894;28;20040;-35
2021/01/18 07:29:17;;;;;;;1.30;0.60;;;;;;;26.90;27.84;97347.69;5003286;28;20406;-29
2021/01/18 07:31:50;;;;;;;1.13;0.60;;;;;;;26.91;27.74;97352.88;5004604;28;20037;-36
2021/01/18 07:34:17;;;;;;;0.50;0.40;;;;;;;26.91;27.96;97346.78;4994424;28;20057;-33
2021/01/18 07:36:43;;;;;;;1.33;0.50;;;;;;;26.91;27.71;97354.66;5004324;28;20064;-32
2021/01/18 07:39:26;;;;;;;1.13;0.60;;;;;;;26.92;27.73;97362.47;5011429;28;20122;-33
2021/01/18 07:41:51;;;;;;;1.23;0.40;;;;;;;26.91;27.84;97366.03;5001153;28;20180;-33
2021/01/18 07:44:33;;;;;;;1.08;0.60;;;;;;;26.93;27.70;97365.97;5009391;28;20053;-32
2021/01/18 07:46:59;;;;;;;3.10;0.70;;;;;;;26.93;27.61;97373.88;5001009;28;20025;-34
2021/01/18 07:49:24;;;;;;;21.65;1.25;;;;;;;26.93;27.81;97377.31;5001293;28;20029;-31
2021/01/18 07:51:50;;;;;;;50.47;1.40;;;;;;;26.95;27.74;97377.28;4997034;28;20030;-32
2021/01/18 07:54:34;;;;;;;15.27;0.80;;;;;;;26.96;27.58;97386.91;5006172;28;20652;-32
2021/01/18 07:57:30;;;;;;;10.90;1.48;;;;;;;26.95;26.81;97374.66;4999197;28;20749;-32
2021/01/18 08:00:23;;;;;;;4.72;0.85;;;;;;;26.96;27.53;97386.91;5005524;28;20049;-33
2021/01/18 08:02:52;;;;;;;4.43;0.95;;;;;;;26.95;27.08;97390.44;5005183;28;20597;-32
2021/01/18 08:05:47;;;;;;;9.23;1.50;;;;;;;26.93;26.40;97390.47;5001832;28;20477;-35
2021/01/18 08:08:16;;;;;;;7.78;1.10;;;;;;;26.92;26.65;97398.47;4994332;28;20046;-34
2021/01/18 08:10:57;;;;;;;14.38;1.20;;;;;;;26.91;27.19;97394.09;5002810;28;20022;-35
2021/01/18 08:13:28;;;;;;;4.43;0.80;;;;;;;26.93;27.75;97403.63;5003926;28;20095;-31
2021/01/18 08:15:54;;;;;;;8.23;0.90;;;;;;;26.93;27.65;97402.78;5001913;28;20029;-32
2021/01/18 08:18:29;;;;;;;1.27;0.68;;;;;;;26.90;27.84;97398.53;5000724;28;20766;-32
2021/01/18 08:20:54;;;;;;;1.67;0.70;;;;;;;26.92;27.75;97401.94;5007303;28;20038;-31
2021/01/18 08:23:42;;;;;;;4.78;1.00;;;;;;;26.93;27.71;97408.06;5005306;28;20057;-34
2021/01/18 08:26:08;;;;;;;1.65;0.70;;;;;;;26.93;27.72;97408.06;5007072;28;20259;-33
2021/01/18 08:28:35;;;;;;;4.20;0.77;;;;;;;26.94;27.82;97405.38;5007670;28;20052;-32
2021/01/18 08:31:01;;;;;;;2.75;0.93;;;;;;;26.95;27.92;97406.22;5002498;28;20046;-32
2021/01/18 08:33:26;;;;;;;2.85;0.85;;;;;;;26.94;27.83;97402.75;5003154;28;20546;-34
2021/01/18 08:35:57;;;;;;;2.95;0.90;;;;;;;26.97;27.91;97404.38;5000734;28;20042;-35
2021/01/18 08:38:25;;;;;;;1.58;0.77;;;;;;;26.97;27.79;97399.13;5005075;28;20596;-33
2021/01/18 08:40:52;;;;;;;2.50;0.90;;;;;;;26.97;27.81;97405.22;5002595;28;20048;-33
2021/01/18 08:43:19;;;;;;;2.33;0.80;;;;;;;26.97;27.86;97407.00;5008928;28;20065;-29
2021/01/18 08:45:47;;;;;;;2.08;0.93;;;;;;;26.98;27.58;97406.06;5005471;28;20117;-33
2021/01/18 08:48:14;;;;;;;0.90;0.70;;;;;;;27.01;27.79;97411.19;5006695;28;20045;-32
2021/01/18 08:50:55;;;;;;;2.88;1.00;;;;;;;27.00;27.26;97406.84;5002717;28;20449;-33
2021/01/18 08:53:43;;;;;;;3.28;0.90;;;;;;;27.00;27.50;97415.59;5004611;28;20065;-33
2021/01/18 08:56:20;;;;;;;4.07;1.17;;;;;;;27.00;27.62;97414.72;5002969;28;20551;-31
2021/01/18 08:58:46;;;;;;;1.98;0.80;;;;;;;27.00;27.75;97420.00;5001080;28;21039;-32
2021/01/18 09:01:22;;;;;;;1.83;0.60;;;;;;;27.00;27.87;97415.59;4996094;28;20045;-34
2021/01/18 09:04:00;;;;;;;1.55;0.70;;;;;;;27.02;27.78;97420.78;5000110;28;20045;-34
2021/01/18 09:06:26;;;;;;;3.05;0.70;;;;;;;27.02;27.77;97428.69;5001933;28;20045;-32
2021/01/18 09:09:04;;;;;;;2.97;0.95;;;;;;;27.01;28.07;97421.72;4982405;28;20103;-32
2021/01/18 09:11:31;;;;;;;1.83;0.70;;;;;;;27.03;27.95;97427.75;5001959;28;20763;-34
2021/01/18 09:13:57;;;;;;;2.33;1.08;;;;;;;27.03;27.74;97419.84;5000063;28;20043;-32
2021/01/18 09:16:22;;;;;;;1.33;0.50;;;;;;;27.04;28.03;97421.56;4999979;28;20038;-35
2021/01/18 09:18:48;;;;;;;1.05;0.60;;;;;;;27.05;27.92;97418.00;5000786;28;20148;-31
2021/01/18 09:21:15;;;;;;;2.58;0.80;;;;;;;27.05;27.99;97420.66;5003522;28;20261;-34
2021/01/18 09:23:41;;;;;;;0.90;0.75;;;;;;;27.06;28.02;97419.72;4998544;28;20037;-34
2021/01/18 09:26:12;;;;;;;3.47;0.70;;;;;;;27.06;27.83;97422.34;4981232;28;20423;-30
2021/01/18 09:28:41;;;;;;;3.75;1.10;;;;;;;27.06;28.03;97427.59;5002358;28;20071;-32
2021/01/18 09:31:11;;;;;;;8.18;2.40;;;;;;;26.71;19.83;97415.19;5002456;28;20663;-33
2021/01/18 09:33:37;;;;;;;5.40;2.60;;;;;;;26.22;18.87;97423.50;5012132;28;20037;-30
2021/01/18 09:36:03;;;;;;;8.52;2.67;;;;;;;25.79;18.47;97427.13;5007140;28;20046;-33
2021/01/18 09:38:29;;;;;;;5.65;2.53;;;;;;;25.44;18.67;97434.69;5009177;28;20038;-30
2021/01/18 09:40:55;;;;;;;6.63;2.63;;;;;;;25.19;19.05;97433.06;5004038;28;20037;-32
2021/01/18 09:43:20;;;;;;;12.57;2.70;;;;;;;25.09;22.01;97435.19;5001060;28;20044;-32
2021/01/18 09:45:55;;;;;;;6.07;2.22;;;;;;;25.07;22.55;97430.91;5000808;28;20703;-32
2021/01/18 09:48:24;;;;;;;10.05;2.40;;;;;;;25.11;23.04;97438.63;5006698;28;20041;-33
2021/01/18 09:51:05;;;;;;;7.50;2.25;;;;;;;25.17;23.62;97440.97;5015875;28;20663;-31
2021/01/18 09:53:31;;;;;;;6.55;1.92;;;;;;;25.26;24.17;97428.41;5000177;28;20655;-31
2021/01/18 09:56:04;;;;;;;4.75;1.73;;;;;;;25.35;24.40;97427.19;5002552;28;20042;-34
2021/01/18 09:58:43;;;;;;;5.63;1.95;;;;;;;25.43;24.47;97431.19;5000054;28;20821;-32
2021/01/18 10:01:12;;;;;;;10.30;2.17;;;;;;;25.52;24.70;97424.69;4997220;28;20626;-32
2021/01/18 10:03:38;;;;;;;3.70;1.60;;;;;;;25.60;25.05;97423.56;4997231;28;20619;-34
2021/01/18 10:06:10;;;;;;;9.07;1.95;;;;;;;25.68;25.09;97426.72;4982726;28;20100;-32
2021/01/18 10:08:38;;;;;;;4.47;1.60;;;;;;;25.72;24.96;97414.31;5003227;28;20552;-33
2021/01/18 10:11:04;;;;;;;8.10;1.98;;;;;;;25.77;25.04;97417.59;5003913;28;20025;-32
2021/01/18 10:13:29;;;;;;;4.32;1.80;;;;;;;25.83;25.37;97415.53;5001159;28;20042;-34
2021/01/18 10:15:55;;;;;;;8.68;2.10;;;;;;;25.88;25.37;97409.25;4997780;28;20515;-31
2021/01/18 10:18:28;;;;;;;6.60;1.70;;;;;;;25.92;25.49;97411.69;5006327;28;20506;-34
2021/01/18 10:20:54;;;;;;;8.77;1.60;;;;;;;25.96;25.59;97407.13;5005444;28;20042;-32
2021/01/18 10:23:20;;;;;;;7.78;2.00;;;;;;;26.02;25.80;97401.63;4993751;28;20068;-33
2021/01/18 10:25:45;;;;;;;6.03;2.28;;;;;;;26.02;26.29;97395.50;4996530;28;20415;-31
2021/01/18 10:28:16;;;;;;;7.80;2.33;;;;;;;25.92;26.90;97389.81;4998514;28;20648;-31
2021/01/18 10:30:42;;;;;;;7.90;2.17;;;;;;;25.83;27.22;97386.66;5000965;28;20064;-31
2021/01/18 10:33:17;;;;;;;5.85;2.05;;;;;;;25.82;27.33;97377.09;5001887;28;20052;-32
2021/01/18 10:35:43;;;;;;;15.35;2.45;;;;;;;25.88;27.76;97377.72;5000782;28;20694;-32
2021/01/18 10:38:19;;;;;;;6.30;2.08;;;;;;;26.00;27.67;97386.88;5000502;28;20041;-34
2021/01/18 10:41:01;;;;;;;7.72;2.25;;;;;;;26.15;27.92;97386.16;5001037;28;20181;-33
2021/01/18 10:43:26;;;;;;;9.20;2.67;;;;;;;26.36;27.52;97383.53;5014310;28;20036;-30
2021/01/18 10:45:52;;;;;;;8.18;1.80;;;;;;;26.56;26.92;97379.97;5011984;28;20041;-33
2021/01/18 10:48:17;;;;;;;5.20;2.03;;;;;;;26.76;26.65;97380.78;5001424;28;20781;-32
2021/01/18 10:50:43;;;;;;;12.15;2.00;;;;;;;26.95;26.39;97385.19;5005736;28;20048;-32
2021/01/18 10:53:09;;;;;;;7.82;1.92;;;;;;;27.10;26.17;97379.19;4998577;28;20617;-34
2021/01/18 10:55:35;;;;;;;6.60;2.20;;;;;;;27.24;26.18;97380.28;5005657;28;20033;-33
2021/01/18 10:58:01;;;;;;;7.07;1.88;;;;;;;27.37;26.16;97376.09;5003890;28;20108;-33
2021/01/18 11:00:27;;;;;;;3.38;1.52;;;;;;;27.50;25.99;97375.47;5008947;28;20497;-29
2021/01/18 11:03:02;;;;;;;4.60;1.80;;;;;;;27.63;25.95;97373.94;5002671;28;20033;-34
2021/01/18 11:05:38;;;;;;;4.95;1.92;;;;;;;27.81;25.80;97383.59;5012010;28;20055;-29
2021/01/18 11:08:07;;;;;;;6.10;1.55;;;;;;;27.93;25.65;97380.31;5002588;28;20045;-33
2021/01/18 11:10:40;;;;;;;2.80;1.77;;;;;;;28.03;25.64;97373.63;5014111;28;20457;-31
2021/01/18 11:13:08;;;;;;;4.78;1.63;;;;;;;28.19;25.56;97388.63;5009309;28;20072;-32
2021/01/18 11:15:38;;;;;;;3.25;1.60;;;;;;;28.28;25.48;97379.41;5001871;28;20046;-31
2021/01/18 11:18:04;;;;;;;6.55;1.90;;;;;;;28.34;25.49;97376.41;5010409;28;20037;-29
2021/01/18 11:20:30;;;;;;;4.40;1.60;;;;;;;28.41;25.25;97372.50;5010922;28;20129;-33
2021/01/18 11:22:56;;;;;;;4.55;1.80;;;;;;;28.48;25.15;97377.44;5010286;28;20609;-33
2021/01/18 11:25:22;;;;;;;9.32;1.70;;;;;;;28.49;25.09;97373.88;5007889;28;20038;-31
2021/01/18 11:27:48;;;;;;;14.13;1.92;;;;;;;28.52;25.06;97363.16;5000523;28;20042;-31
2021/01/18 11:30:14;;;;;;;3.35;1.42;;;;;;;28.52;25.16;97365.78;4999635;28;20045;-31
2021/01/18 11:32:40;;;;;;;4.82;1.70;;;;;;;28.51;25.21;97364.97;5003981;28;20075;-30
2021/01/18 11:35:07;;;;;;;13.75;1.60;;;;;;;28.51;25.12;97372.00;5002548;28;20042;-32
2021/01/18 11:37:34;;;;;;;9.95;1.75;;;;;;;28.51;25.13;97372.00;5000288;28;20046;-32
2021/01/18 11:40:00;;;;;;;4.28;1.80;;;;;;;28.51;25.37;97358.81;5003895;28;20238;-32
2021/01/18 11:42:25;;;;;;;5.38;1.63;;;;;;;28.52;25.23;97356.09;5013580;28;20124;-30
2021/01/18 11:44:51;;;;;;;2.38;1.33;;;;;;;28.55;25.28;97363.00;5012798;28;20052;-32
2021/01/18 11:47:16;;;;;;;4.72;1.65;;;;;;;28.56;25.42;97360.28;5002791;28;20049;-31